x

Smith Island, Wa (sisw1) Weather Station

7:00 - Mon 1st Jun 2015 All times are PDT. -7 hours from GMT.

  • Wind
    7mph, 8mph gusts
  • Luft Temp 53°f
  • Sea Pressure 1013.4mb
  • Smith Island, Wa
  • Smith Island, Wa

More Historic Weather Station data

Upgrade to MSW Pro to gain access to the past 30 days of data for over 8000 Wavebouys and Weather Stations around the globe.

Join Pro

Comparision Forecast

View Surf forecast
   
Mo 06/01 7:00 7 8 mph 1013.4mb 53f
6:00 6 7 mph 1013.2mb 54f
5:00 6
mph
1013.1mb 54f
4:00 7 8 mph 1013.2mb 53f
3:00 7
mph
1013.3mb 53f
2:00 5 7 mph 1013.2mb 54f
1:00 2
mph
1013mb 54f
12:00  -  1 mph 1013.1mb 53f
11:00 5 6 mph 1013mb 53f
10:00 8 10 mph 1012.4mb 53f
9:00 9 11 mph 1012mb 52f
8:00 15 17 mph 1011.7mb 52f
7:00 13 16 mph 1010.8mb 51f
6:00 14 15 mph 1010mb 50f
5:00 13 15 mph 1009.7mb 51f
4:00 8 9 mph 1009mb 52f
3:00 6 7 mph 1008.6mb 52f
2:00 6
mph
1008.9mb 52f
1:00 7 9 mph 1008.8mb 51f
12:00 7 8 mph 1008.6mb 52f
So 05/31 11:00 7 8 mph 1008.4mb 52f
10:00 8
mph
1008.7mb 52f
9:00 6
mph
1008.8mb 53f
8:00 6
mph
1008.8mb 54f
7:00 6 7 mph 1009.1mb 54f
6:00  -  1 mph 1009.7mb 56f
5:00 6
mph
1009.6mb 55f
4:00 3 5 mph 1010.7mb 55f
3:00 2 3 mph 1011.3mb 55f
2:00 5 6 mph 1011.8mb 54f
1:00 7 8 mph 1012.1mb 53f
12:00 6
mph
1012.4mb 53f
11:00 5 6 mph 1012.7mb 53f
10:00 10
mph
1013.2mb 51f
9:00 2 6 mph 1013mb 51f
8:00 8 9 mph 1013.2mb 49f
7:00 10 13 mph 1013.1mb 49f
6:00 11 13 mph 1013.1mb 49f
5:00 9 13 mph 1013.2mb 49f
4:00 10 15 mph 1013.2mb 49f
3:00 13 16 mph 1013.5mb 50f
2:00 14 17 mph 1013.4mb 50f
1:00 15 21 mph 1013.4mb 50f
12:00 20 23 mph 1013.4mb 51f
Sa 05/30 11:00 22 25 mph 1013.2mb 51f
10:00 21 23 mph 1013.1mb 52f
9:00 16 20 mph 1012.9mb 52f
8:00 17 23 mph 1012.7mb 54f
7:00 17 20 mph 1012.8mb 54f
6:00 13 14 mph 1013.3mb 56f
5:00 14 15 mph 1013.6mb 55f
4:00 9 10 mph 1014.6mb 57f
3:00 7 8 mph 1015mb 56f
2:00 8 10 mph 1014.9mb 57f
1:00 3 6 mph 1014.9mb 56f
12:00 6 7 mph 1014.9mb 55f
11:00 8 9 mph 1014.9mb 54f
10:00 15 16 mph 1014.9mb 52f
9:00 17 18 mph 1015mb 53f
8:00 14 15 mph 1014.7mb 52f
7:00 15 17 mph 1014.4mb 51f
6:00 16 18 mph 1014.2mb 51f
5:00 20 23 mph 1013.7mb 51f
4:00 22 26 mph 1013.4mb 51f
3:00 25 29 mph 1013.3mb 51f
2:00 24 28 mph 1012.7mb 51f
1:00 23 30 mph 1012.4mb 52f
12:00 26 29 mph 1012.2mb 52f
Fr 05/29 11:00 22 26 mph 1012.4mb 51f
10:00 21 24 mph 1012.4mb 52f
9:00 22 26 mph 1012.1mb 53f
8:00 20 21 mph 1012.2mb 53f
7:00 20 22 mph 1012.3mb 55f
6:00 16 21 mph 1012.4mb 55f
5:00 10 11 mph 1013.2mb 56f
4:00 8 10 mph 1013.5mb 55f
3:00 9 11 mph 1014.2mb 56f
2:00 7 8 mph 1014.8mb 55f
1:00 8 9 mph 1015.1mb 53f
12:00 5 7 mph 1015.6mb 52f
11:00 6 7 mph 1015.7mb 51f
10:00 6 7 mph 1016mb 52f
9:00 7
mph
1016mb 51f
8:00 9 10 mph 1015.8mb 50f
7:00 9 10 mph 1015.9mb 49f
6:00 9 13 mph 1015.7mb 49f
5:00 15 18 mph 1015.2mb 50f
4:00 13 15 mph 1015.3mb 50f